Latest Weather Observations for Moranbah Airport

IDQ60801

Issued at 8:05 pm EST Wednesday 23 April 2014 (issued every 30 minutes, with the page automatically refreshed every 10 minutes)

About weather observations | Map of weather stations | Latest weather observations for QLD | Other Formats
Station Details ID: 034035 Name: MORANBAH AIRPORT Lat: -22.06 Lon: 148.08 Height: 232.2 m
Data from the previous 72 hours. | See also: Recent months at Moranbah Airport
Date/Time
EST
Temp
°C
App
Temp
°C
Dew
Point
Rel
Hum
%
Delta-T
°C
Wind Press
QNH
hPa
Press
MSL
hPa
Rain
since 9 am
mm
Dir
 
Spd
km/h
Gust
km/h
Spd
kts
Gust
kts
23/08:00pm 20.2 23.1 18.1 88 1.3 N 0 0 0 0 1017.2 - 0.6
23/07:30pm 20.3 22.3 17.9 86 1.5 E 4 7 2 4 1016.5 - 0.6
23/07:00pm 20.6 21.7 18.0 85 1.6 E 9 11 5 6 1016.1 - 0.6
23/06:30pm 21.4 22.3 18.4 83 1.9 ESE 11 13 6 7 1015.7 - 0.6
23/06:00pm 21.8 22.9 18.8 83 1.9 E 11 11 6 6 1015.5 1014.5 0.6
23/05:30pm 22.7 23.9 19.1 80 2.3 E 11 17 6 9 1015.2 - 0.6
23/05:00pm 23.9 24.7 19.0 74 3.1 ESE 13 19 7 10 1014.7 - 0.6
23/04:30pm 24.1 24.6 19.2 74 3.2 E 15 22 8 12 1014.6 - 0.6
23/04:00pm 23.9 24.9 19.4 76 2.9 ESE 13 17 7 9 1014.4 - 0.6
23/03:30pm 23.8 25.6 19.5 77 2.8 SE 9 13 5 7 1014.6 - 0.6
23/03:00pm 22.9 23.7 19.1 79 2.4 ESE 13 15 7 8 1014.4 1013.3 0.6
23/02:30pm 22.5 23.4 19.3 82 2.1 ESE 13 15 7 8 1014.6 - 0.6
23/02:00pm 22.4 24.4 19.2 82 2.1 E 7 9 4 5 1015.4 - 0.6
23/01:30pm 22.6 24.1 18.8 79 2.4 ESE 9 13 5 7 1015.7 - 0.4
23/01:00pm 22.9 24.6 18.0 74 3.1 SE 6 7 3 4 1016.6 - 0.0
23/12:30pm 23.1 24.1 17.8 72 3.3 E 9 11 5 6 1016.9 - 0.0
23/12:00pm 23.3 23.5 18.6 75 3.0 E 15 19 8 10 1016.9 1015.9 0.0
23/11:30am 23.2 23.1 17.9 72 3.3 E 15 19 8 10 1017.6 - 0.0
23/11:00am 23.2 22.9 18.3 74 3.1 E 17 22 9 12 1017.8 - 0.0
23/10:30am 22.6 22.4 18.4 77 2.7 E 17 20 9 11 1018.1 - 0.0
23/10:00am 21.7 21.9 18.5 82 2.0 E 15 20 8 11 1018.2 - 0.0
23/09:30am 20.8 20.1 18.2 85 1.6 ESE 19 22 10 12 1018.3 - 0.0
23/09:00am 20.3 20.2 17.9 86 1.5 SE 15 19 8 10 1018.1 1017.0 2.4
23/08:30am 19.8 19.3 17.8 88 1.2 ESE 17 24 9 13 1017.5 - 2.4
23/08:00am 19.5 19.5 18.0 91 0.9 SE 15 17 8 9 1017.4 - 2.4
23/07:30am 19.0 18.5 17.8 93 0.7 ESE 17 20 9 11 1017.3 - 2.4
23/07:00am 18.8 19.0 17.6 93 0.7 SE 13 17 7 9 1017.1 - 2.2
23/06:30am 18.9 19.9 17.7 93 0.7 SE 9 11 5 6 1017.2 - 2.0
23/06:00am 18.9 19.9 17.7 93 0.7 ESE 9 11 5 6 1016.9 1015.9 1.8
23/05:30am 18.9 19.6 17.9 94 0.6 SE 11 13 6 7 1016.7 - 1.8
23/05:00am 18.7 19.7 17.7 94 0.6 SE 9 11 5 6 1016.8 - 1.8
23/04:30am 19.0 19.3 18.0 94 0.6 SSE 13 15 7 8 1016.7 - 1.8
23/04:00am 19.2 19.6 18.2 94 0.6 SE 13 15 7 8 1016.3 - 1.6
23/03:30am 19.3 20.1 18.1 93 0.7 E 11 15 6 8 1016.3 - 1.6
23/03:00am 19.3 19.6 18.0 92 0.8 E 13 17 7 9 1016.5 1015.5 1.6
23/02:30am 19.4 20.5 17.9 91 0.9 SSE 9 11 5 6 1017.2 - 1.0
23/02:00am 19.7 20.4 18.0 90 1.1 SSE 11 13 6 7 1016.9 - 0.4
23/01:30am 20.0 21.0 17.8 87 1.4 SSE 9 11 5 6 1017.2 - 0.0
23/01:00am 20.2 21.5 17.6 85 1.6 SE 7 13 4 7 1017.5 - 0.0
23/12:30am 20.8 22.1 17.0 79 2.3 SE 6 9 3 5 1017.9 - 0.0
23/12:00am 21.0 20.9 17.0 78 2.5 SE 13 17 7 9 1017.8 1016.7 0.0
 
Date/Time
EST
Temp
°C
App
Temp
°C
Dew
Point
Rel
Hum
%
Delta-T
°C
Wind Press
QNH
hPa
Press
MSL
hPa
Rain
since 9 am
mm
Dir
 
Spd
km/h
Gust
km/h
Spd
kts
Gust
kts
22/11:30pm 21.8 22.5 17.0 74 3.0 S 9 15 5 8 1018.3 - 0.0
22/11:00pm 22.1 22.0 17.0 73 3.2 E 13 19 7 10 1017.4 - 0.0
22/10:30pm 22.0 21.8 16.7 72 3.3 E 13 15 7 8 1017.5 - 0.0
22/10:00pm 22.0 21.6 16.3 70 3.5 E 13 15 7 8 1017.7 - 0.0
22/09:30pm 22.3 23.0 16.1 68 3.8 ENE 7 9 4 5 1018.3 - 0.0
22/09:00pm 22.5 21.7 16.1 67 3.9 ENE 15 19 8 10 1017.7 1016.6 0.0
22/08:30pm 23.3 22.5 16.1 64 4.4 ENE 15 20 8 11 1018.2 - 0.0
22/08:00pm 23.3 22.2 16.4 65 4.2 ENE 17 22 9 12 1018.0 - 0.0
22/07:30pm 24.1 22.3 15.9 60 5.0 E 20 26 11 14 1017.5 - 0.0
22/07:00pm 24.6 23.4 16.1 59 5.2 ENE 17 24 9 13 1017.5 - 0.0
22/06:30pm 25.0 24.0 15.6 56 5.7 E 15 20 8 11 1017.1 - 0.0
22/06:00pm 25.2 24.8 15.2 54 6.1 E 11 13 6 7 1016.8 1015.8 0.0
22/05:30pm 25.8 24.5 14.9 51 6.6 ENE 15 20 8 11 1016.5 - 0.0
22/05:00pm 26.0 25.5 14.8 50 6.8 ENE 11 13 6 7 1016.2 - 0.0
22/04:30pm 27.1 25.2 15.1 47 7.3 E 19 24 10 13 1015.8 - 0.0
22/04:00pm 26.9 24.6 14.6 46 7.5 ENE 20 28 11 15 1015.7 - 0.0
22/03:30pm 27.1 24.9 14.8 47 7.5 E 20 26 11 14 1015.6 - 0.0
22/03:00pm 28.4 26.2 15.0 44 8.2 ENE 20 30 11 16 1015.5 1014.5 0.0
22/02:30pm 27.8 24.8 14.8 45 7.9 ENE 24 35 13 19 1015.9 - 0.0
22/02:00pm 27.8 25.2 14.8 45 7.9 E 22 30 12 16 1016.3 - 0.0
22/01:30pm 28.2 26.3 15.1 44 8.0 ENE 19 32 10 17 1016.5 - 0.0
22/01:00pm 27.8 25.7 15.1 46 7.8 ENE 20 28 11 15 1017.1 - 0.0
22/12:30pm 27.2 25.0 14.9 47 7.5 E 20 32 11 17 1017.6 - 0.0
22/12:00pm 26.5 24.1 14.3 47 7.3 E 20 33 11 18 1018.1 1017.0 0.0
22/11:30am 26.6 24.0 15.0 49 7.1 ESE 22 33 12 18 1018.7 - 0.0
22/11:00am 26.4 23.4 14.8 49 7.0 E 24 32 13 17 1019.2 - 0.0
22/10:30am 25.6 23.1 14.1 49 6.9 E 20 28 11 15 1019.7 - 0.0
22/10:00am 24.9 22.4 14.1 51 6.4 E 20 28 11 15 1020.2 - 0.0
22/09:30am 24.1 21.6 13.6 52 6.2 E 19 26 10 14 1020.4 - 0.0
22/09:00am 22.7 20.3 13.7 56 5.3 E 19 24 10 13 1020.5 1019.5 0.0
22/08:30am 21.2 20.1 14.4 65 4.0 ESE 13 17 7 9 1020.4 - 0.0
22/08:00am 19.6 18.4 15.0 75 2.7 ESE 15 19 8 10 1020.2 - 0.0
22/07:30am 17.9 16.8 15.2 84 1.6 SE 15 20 8 11 1019.8 - 0.0
22/07:00am 16.3 15.5 15.0 92 0.8 SE 13 15 7 8 1019.5 - 0.0
22/06:30am 15.2 14.5 14.2 94 0.6 SSE 11 15 6 8 1019.3 - 0.0
22/06:00am 15.2 14.4 14.1 93 0.6 SSE 11 13 6 7 1019.0 1018.0 0.0
22/05:30am 15.7 14.7 14.6 93 0.6 SSE 13 15 7 8 1018.8 - 0.0
22/05:00am 15.0 14.5 13.7 92 0.7 SSE 9 13 5 7 1018.5 - 0.0
22/04:30am 15.5 15.3 14.7 95 0.5 SSE 9 11 5 6 1018.6 - 0.0
22/04:00am 14.9 13.7 14.1 95 0.5 SSE 13 13 7 7 1018.5 - 0.0
22/03:30am 14.1 13.4 13.1 94 0.6 SE 9 11 5 6 1018.6 - 0.0
22/03:00am 13.7 14.4 12.3 91 0.8 CALM 0 0 0 0 1018.6 1017.6 0.0
22/02:30am 14.8 13.8 13.5 92 0.7 SE 11 13 6 7 1018.5 - 0.0
22/02:00am 15.0 14.8 13.7 92 0.7 S 7 9 4 5 1018.8 - 0.0
22/01:30am 14.6 14.8 13.0 90 0.9 S 4 6 2 3 1018.9 - 0.0
22/01:00am 15.1 15.7 13.0 87 1.2 SE 2 6 1 3 1019.1 - 0.0
22/12:30am 15.9 14.7 14.1 89 1.0 SE 13 15 7 8 1019.3 - 0.0
22/12:00am 16.0 15.5 13.7 86 1.3 ESE 9 11 5 6 1019.5 1018.5 0.0
 
Date/Time
EST
Temp
°C
App
Temp
°C
Dew
Point
Rel
Hum
%
Delta-T
°C
Wind Press
QNH
hPa
Press
MSL
hPa
Rain
since 9 am
mm
Dir
 
Spd
km/h
Gust
km/h
Spd
kts
Gust
kts
21/11:30pm 16.5 15.7 14.0 85 1.4 E 11 13 6 7 1019.6 - 0.0
21/11:00pm 17.4 17.7 14.5 83 1.7 ENE 6 7 3 4 1019.8 - 0.0
21/10:30pm 18.4 18.6 14.7 79 2.2 ENE 7 9 4 5 1019.9 - 0.0
21/10:00pm 18.6 17.9 14.3 76 2.5 NE 11 11 6 6 1019.9 - 0.0
21/09:30pm 19.6 18.7 14.8 74 2.8 ENE 13 17 7 9 1019.8 - 0.0
21/09:00pm 20.6 19.2 14.5 68 3.6 ENE 15 19 8 10 1019.8 1018.8 0.0
21/08:30pm 21.5 19.8 14.6 65 4.1 ENE 17 26 9 14 1019.7 - 0.0
21/08:00pm 22.0 19.8 14.4 62 4.5 ENE 19 26 10 14 1019.6 - 0.0
21/07:30pm 22.8 20.4 14.4 59 5.0 ENE 20 28 11 15 1019.1 - 0.0
21/07:00pm 22.0 20.0 12.8 56 5.3 E 15 19 8 10 1018.5 - 0.0
21/06:30pm 22.0 20.2 12.0 53 5.7 E 13 15 7 8 1018.0 - 0.0
21/06:00pm 23.9 21.6 11.9 47 6.9 E 15 19 8 10 1017.8 1016.7 0.0
21/05:30pm 25.6 22.3 11.7 42 8.0 E 20 26 11 14 1017.6 - 0.0
21/05:00pm 26.8 23.5 11.7 39 8.7 E 20 28 11 15 1017.2 - 0.0
21/04:30pm 27.6 24.3 11.6 37 9.3 E 20 30 11 16 1016.8 - 0.0
21/04:00pm 27.8 24.4 11.4 36 9.5 E 20 30 11 16 1016.5 - 0.0
21/03:30pm 28.3 25.1 11.8 36 9.6 E 20 28 11 15 1016.5 - 0.0
21/03:00pm 28.3 24.7 11.8 36 9.6 ESE 22 35 12 19 1016.2 1015.2 0.0
21/02:30pm 28.9 25.4 12.3 36 9.8 E 22 35 12 19 1016.2 - 0.0
21/02:00pm 28.2 24.3 12.1 37 9.4 E 24 37 13 20 1016.5 - 0.0
21/01:30pm 28.0 24.2 11.1 35 9.7 ESE 22 35 12 19 1016.9 - 0.0
21/01:00pm 28.0 23.2 10.2 33 10.1 E 26 39 14 21 1017.5 - 0.0
21/12:30pm 28.2 24.1 11.3 35 9.8 E 24 35 13 19 1017.9 - 0.0
21/12:00pm 27.6 23.5 11.6 37 9.3 ENE 24 35 13 19 1018.5 1017.4 0.0
21/11:30am 27.2 22.3 11.2 36 9.2 ENE 28 41 15 22 1019.1 - 0.0
21/11:00am 27.1 22.0 12.0 39 8.8 E 30 41 16 22 1019.5 - 0.0
21/10:30am 26.7 21.3 10.8 37 9.1 E 30 41 16 22 1019.9 - 0.0
21/10:00am 25.8 23.3 14.0 48 7.1 ESE 20 32 11 17 1020.0 - 0.0
21/09:30am 24.1 21.9 14.8 56 5.6 E 20 32 11 17 1019.9 - 0.0
21/09:00am 23.1 21.8 14.9 60 4.9 E 15 24 8 13 1019.8 1018.8 0.0
21/08:30am 21.5 20.3 15.1 67 3.8 E 15 17 8 9 1019.5 - 0.0
21/08:00am 19.7 18.5 15.1 75 2.7 ESE 15 17 8 9 1019.3 - 0.0
21/07:30am 18.0 16.4 15.1 83 1.7 SE 17 20 9 11 1019.1 - 0.0
21/07:00am 16.2 15.2 14.7 91 0.9 SSE 13 15 7 8 1018.8 - 0.0
21/06:30am 13.4 12.3 12.1 92 0.7 SSE 9 13 5 7 1018.6 - 0.0
21/06:00am 13.5 12.9 12.4 93 0.6 S 7 9 4 5 1018.1 1017.0 0.0
21/05:30am 13.7 12.4 12.4 92 0.7 SE 11 13 6 7 1017.9 - 0.0
21/05:00am 14.1 12.9 12.7 91 0.8 SE 11 13 6 7 1017.6 - 0.0
21/04:30am 15.1 13.4 13.5 90 0.9 SE 15 17 8 9 1017.5 - 0.0
21/04:00am 15.1 13.3 13.3 89 1.0 SSE 15 17 8 9 1017.3 - 0.0
21/03:30am 15.1 13.6 13.1 88 1.1 SSE 13 15 7 8 1017.3 - 0.0
21/03:00am 16.0 14.8 12.9 82 1.7 SSE 11 13 6 7 1017.5 1016.4 0.0
21/02:30am 16.7 15.1 12.8 78 2.2 SSE 13 15 7 8 1017.5 - 0.0
21/02:00am 17.4 16.0 13.3 77 2.3 E 13 15 7 8 1017.5 - 0.0
21/01:30am 17.2 16.5 13.1 77 2.3 E 9 11 5 6 1017.6 - 0.0
21/01:00am 17.5 16.4 13.2 76 2.4 E 11 13 6 7 1017.9 - 0.0
21/12:30am 18.4 18.1 12.6 69 3.3 ENE 6 7 3 4 1018.0 - 0.0
21/12:00am 17.8 18.0 13.1 74 2.7 ENE 4 6 2 3 1018.1 1017.0 0.0
 
Date/Time
EST
Temp
°C
App
Temp
°C
Dew
Point
Rel
Hum
%
Delta-T
°C
Wind Press
QNH
hPa
Press
MSL
hPa
Rain
since 9 am
mm
Dir
 
Spd
km/h
Gust
km/h
Spd
kts
Gust
kts
20/11:30pm 18.2 18.1 13.9 76 2.5 ENE 7 9 4 5 1018.2 - 0.0
20/11:00pm 17.0 16.5 12.5 75 2.5 ENE 7 9 4 5 1018.4 - 0.0
20/10:30pm 18.4 17.9 13.7 74 2.7 ENE 9 11 5 6 1018.4 - 0.0
20/10:00pm 18.2 19.1 12.9 71 3.0 CALM 0 0 0 0 1018.4 - 0.0
20/09:30pm 20.0 19.8 13.5 66 3.8 ENE 7 9 4 5 1018.4 - 0.0
20/09:00pm 20.5 19.5 13.5 64 4.0 NE 11 15 6 8 1018.3 1017.2 0.0
20/08:30pm 20.9 19.5 13.4 62 4.3 ENE 13 15 7 8 1018.1 - 0.0

Other Formats:

Comma delimited format used in spreadsheet applications
http://www.bom.gov.au/fwo/IDQ60801/IDQ60801.94397.axf

JavaScript Object Notation format (JSON) in row-major order
http://www.bom.gov.au/fwo/IDQ60801/IDQ60801.94397.json